Time;durP1;ratioP1;P1;durP2;ratioP2;P2;SDS_P1;SDS_P2;PMS_P1;PMS_P2;Temp;Humidity;BMP_temperature;BMP_pressure;BME280_temperature;BME280_humidity;BME280_pressure;Samples;Min_cycle;Max_cycle;Signal;HPM_P1;HPM_P2
2023/11/12 00:01:17;;;;;;;0.20;0.20;;;;;;;9.06;71.98;100629.69;5054450;28;20025;-81
2023/11/12 00:03:44;;;;;;;0.10;0.10;;;;;;;9.09;72.14;100634.03;5053190;28;20057;-81
2023/11/12 00:06:11;;;;;;;0.20;0.20;;;;;;;9.12;72.05;100626.03;5054437;28;20032;-81
2023/11/12 00:08:38;;;;;;;0.20;0.20;;;;;;;9.14;71.91;100622.47;5054265;28;20021;-80
2023/11/12 00:11:04;;;;;;;0.17;0.17;;;;;;;9.17;72.45;100621.53;5059318;28;20025;-81
2023/11/12 00:13:31;;;;;;;0.15;0.15;;;;;;;9.22;71.94;100625.84;5054889;28;20028;-80
2023/11/12 00:15:57;;;;;;;0.10;0.10;;;;;;;9.23;72.16;100622.31;5054314;28;20037;-81
2023/11/12 00:18:23;;;;;;;0.20;0.20;;;;;;;9.25;71.89;100627.56;5053719;28;20060;-81
2023/11/12 00:20:51;;;;;;;0.30;0.30;;;;;;;9.23;72.44;100622.31;5054037;28;20048;-81
2023/11/12 00:23:18;;;;;;;0.13;0.13;;;;;;;9.21;72.56;100620.59;5055824;28;20032;-81
2023/11/12 00:25:44;;;;;;;0.20;0.20;;;;;;;9.21;72.33;100626.75;5056494;28;20025;-81
2023/11/12 00:28:10;;;;;;;0.50;0.50;;;;;;;9.19;72.06;100625.03;5055868;28;20029;-81
2023/11/12 00:30:36;;;;;;;0.20;0.20;;;;;;;9.17;72.39;100624.19;5055409;28;20029;-81
2023/11/12 00:33:02;;;;;;;0.15;0.15;;;;;;;9.14;72.14;100621.59;5059638;28;20384;-80
2023/11/12 00:35:28;;;;;;;0.20;0.20;;;;;;;9.07;72.46;100621.72;5055229;28;20033;-81
2023/11/12 00:37:55;;;;;;;0.55;0.55;;;;;;;9.05;72.01;100620.00;5054915;28;20539;-81
2023/11/12 00:40:21;;;;;;;0.20;0.20;;;;;;;9.00;71.80;100616.56;5057364;28;20496;-81
2023/11/12 00:42:47;;;;;;;0.20;0.20;;;;;;;8.96;71.98;100613.09;5059291;28;20048;-80
2023/11/12 00:45:13;;;;;;;0.20;0.20;;;;;;;8.90;71.97;100607.91;5059831;28;20519;-79
2023/11/12 00:47:39;;;;;;;0.20;0.20;;;;;;;8.86;72.12;100609.75;5059089;28;20108;-80
2023/11/12 00:50:08;;;;;;;0.10;0.10;;;;;;;8.83;71.91;100615.06;5057186;28;20029;-80
2023/11/12 00:52:34;;;;;;;0.20;0.20;;;;;;;8.83;72.06;100611.56;5059824;28;20377;-81
2023/11/12 00:55:01;;;;;;;0.20;0.20;;;;;;;8.81;71.68;100615.97;5059230;28;20040;-81
2023/11/12 00:57:27;;;;;;;0.20;0.20;;;;;;;8.78;71.90;100621.31;5058353;28;20111;-80
2023/11/12 00:59:53;;;;;;;0.17;0.17;;;;;;;8.74;71.69;100615.22;5056908;28;20111;-81
2023/11/12 01:02:19;;;;;;;0.20;0.20;;;;;;;8.70;71.97;100621.47;5058851;28;20029;-80
2023/11/12 01:04:46;;;;;;;0.20;0.20;;;;;;;8.66;71.49;100620.63;5057519;28;20053;-80
2023/11/12 01:07:12;;;;;;;0.20;0.20;;;;;;;8.63;71.63;100625.09;5053096;28;20031;-79
2023/11/12 01:09:38;;;;;;;0.20;0.20;;;;;;;8.57;71.67;100615.47;5058284;28;20380;-80
2023/11/12 01:12:05;;;;;;;0.20;0.20;;;;;;;8.53;71.81;100611.16;5057318;28;20055;-81
2023/11/12 01:14:31;;;;;;;0.10;0.10;;;;;;;8.51;71.09;100615.56;5059065;28;20029;-80
2023/11/12 01:16:57;;;;;;;0.20;0.20;;;;;;;8.46;71.73;100612.09;5056582;28;20090;-80
2023/11/12 01:19:23;;;;;;;0.20;0.20;;;;;;;8.42;72.03;100609.50;5058129;28;20029;-80
2023/11/12 01:21:49;;;;;;;0.25;0.25;;;;;;;8.39;71.71;100617.47;5057203;28;20021;-80
2023/11/12 01:24:16;;;;;;;4.05;1.00;;;;;;;8.35;71.76;100604.31;5057706;28;20096;-80
2023/11/12 01:26:43;;;;;;;0.20;0.20;;;;;;;8.33;71.55;100600.84;5056661;28;20013;-81
2023/11/12 01:29:10;;;;;;;0.10;0.10;;;;;;;8.32;72.01;100599.97;5053756;28;20029;-80
2023/11/12 01:31:36;;;;;;;0.10;0.10;;;;;;;8.25;71.71;100608.88;5059748;28;20033;-80
2023/11/12 01:34:03;;;;;;;0.20;0.20;;;;;;;8.19;71.30;100598.41;5056700;28;20028;-80
2023/11/12 01:36:29;;;;;;;0.30;0.30;;;;;;;8.14;71.46;100600.22;5059082;28;20032;-80
2023/11/12 01:38:55;;;;;;;0.40;0.40;;;;;;;8.08;71.19;100598.56;5057819;28;20036;-78
2023/11/12 01:41:21;;;;;;;0.20;0.20;;;;;;;8.04;71.09;100595.09;5053076;28;20036;-80
2023/11/12 01:43:47;;;;;;;0.20;0.20;;;;;;;7.99;71.02;100591.63;5057155;28;20035;-80
2023/11/12 01:46:14;;;;;;;0.20;0.20;;;;;;;7.97;71.51;100593.41;5056606;28;20033;-81
2023/11/12 01:48:41;;;;;;;0.40;0.40;;;;;;;7.93;71.60;100597.00;5056172;28;20104;-81
2023/11/12 01:51:07;;;;;;;0.20;0.20;;;;;;;7.89;71.68;100596.16;5047137;28;20028;-80
2023/11/12 01:53:36;;;;;;;0.10;0.10;;;;;;;7.86;71.04;100600.59;5057578;28;20055;-81
2023/11/12 01:56:07;;;;;;;0.20;0.20;;;;;;;7.83;71.22;100596.25;5057623;28;20033;-82
2023/11/12 01:58:33;;;;;;;0.20;0.20;;;;;;;7.80;71.23;100605.94;5053912;28;20053;-81
2023/11/12 02:01:00;;;;;;;0.20;0.20;;;;;;;7.75;71.42;100598.97;5055557;28;20036;-82
2023/11/12 02:03:27;;;;;;;0.20;0.20;;;;;;;7.76;71.09;100603.38;5056806;28;20037;-80
2023/11/12 02:05:53;;;;;;;0.20;0.20;;;;;;;7.76;71.67;100600.72;5056284;28;20051;-81
2023/11/12 02:08:21;;;;;;;0.17;0.17;;;;;;;7.77;71.49;100594.53;5060004;28;20036;-81
2023/11/12 02:10:49;;;;;;;0.20;0.20;;;;;;;7.80;71.51;100596.28;5059663;28;20127;-82
2023/11/12 02:13:16;;;;;;;0.20;0.20;;;;;;;7.85;71.40;100598.84;5057433;28;20025;-84
2023/11/12 02:15:47;;;;;;;0.20;0.20;;;;;;;7.90;71.47;100594.38;5058088;28;20120;-83
2023/11/12 02:18:13;;;;;;;0.10;0.10;;;;;;;7.94;71.42;100594.34;5057187;28;20044;-83
2023/11/12 02:20:47;;;;;;;0.90;0.90;;;;;;;8.06;71.76;100589.78;5057449;28;20021;-83
2023/11/12 02:23:15;;;;;;;0.13;0.13;;;;;;;8.10;71.75;100597.66;5058415;28;20025;-83
2023/11/12 02:25:43;;;;;;;0.20;0.20;;;;;;;8.18;71.62;100596.66;5057380;28;20436;-83
2023/11/12 02:28:10;;;;;;;0.20;0.20;;;;;;;8.24;71.63;100593.94;5056808;28;20484;-84
2023/11/12 02:30:38;;;;;;;0.13;0.13;;;;;;;8.31;72.04;100595.59;5056385;28;20048;-83
2023/11/12 02:33:05;;;;;;;0.20;0.20;;;;;;;8.40;72.17;100592.81;5060882;28;20048;-84
2023/11/12 02:35:32;;;;;;;0.20;0.20;;;;;;;8.47;72.33;100593.63;5059957;28;20080;-83
2023/11/12 02:37:58;;;;;;;0.20;0.20;;;;;;;8.52;72.05;100591.81;5056719;28;20032;-83
2023/11/12 02:40:25;;;;;;;0.10;0.10;;;;;;;8.61;72.33;100589.91;5056664;28;20048;-83
2023/11/12 02:42:51;;;;;;;0.57;0.57;;;;;;;8.66;72.42;100594.22;5058161;28;20021;-83
2023/11/12 02:45:18;;;;;;;0.20;0.20;;;;;;;8.71;72.70;100595.00;5057364;28;20037;-84
2023/11/12 02:47:44;;;;;;;0.20;0.20;;;;;;;8.75;72.78;100587.91;5056911;28;20100;-84
2023/11/12 02:50:22;;;;;;;0.20;0.20;;;;;;;8.85;72.87;100586.84;5052662;28;20037;-83
2023/11/12 02:52:49;;;;;;;0.20;0.20;;;;;;;8.84;72.74;100586.88;5055099;28;20028;-83
2023/11/12 02:55:16;;;;;;;0.10;0.10;;;;;;;8.87;72.81;100589.47;5056431;28;20036;-83
2023/11/12 02:57:44;;;;;;;0.28;0.28;;;;;;;8.89;72.60;100585.03;5053969;28;20028;-83
2023/11/12 03:00:11;;;;;;;0.17;0.17;;;;;;;8.88;73.14;100586.81;5052580;28;20051;-82
2023/11/12 03:02:37;;;;;;;0.57;0.57;;;;;;;8.93;73.05;100584.06;5052739;28;20056;-82
2023/11/12 03:05:03;;;;;;;0.10;0.10;;;;;;;8.95;73.25;100587.56;5053445;28;20503;-83
2023/11/12 03:07:30;;;;;;;0.10;0.10;;;;;;;8.99;73.09;100591.91;5053579;28;20036;-83
2023/11/12 03:09:56;;;;;;;0.20;0.20;;;;;;;8.99;73.05;100591.91;5053011;28;20055;-83
2023/11/12 03:12:23;;;;;;;0.10;0.10;;;;;;;9.01;72.87;100592.75;5053043;28;20021;-83
2023/11/12 03:14:49;;;;;;;0.10;0.10;;;;;;;9.04;73.01;100594.47;5052577;28;20068;-84
2023/11/12 03:17:15;;;;;;;0.20;0.20;;;;;;;9.06;73.24;100608.53;5054227;28;20033;-84
2023/11/12 03:19:41;;;;;;;0.20;0.20;;;;;;;9.04;72.99;100605.03;5055091;28;20187;-83
2023/11/12 03:22:09;;;;;;;0.10;0.10;;;;;;;9.07;73.16;100600.56;5063162;28;20036;-83
2023/11/12 03:24:36;;;;;;;0.10;0.10;;;;;;;9.10;73.34;100604.03;5061249;28;20063;-84
2023/11/12 03:27:03;;;;;;;0.40;0.40;;;;;;;9.12;72.92;100602.25;5058429;28;20024;-83
2023/11/12 03:29:29;;;;;;;0.13;0.13;;;;;;;9.11;73.03;100595.22;5058902;28;20492;-83
2023/11/12 03:31:56;;;;;;;0.20;0.20;;;;;;;9.11;73.24;100589.94;5058679;28;20508;-83
2023/11/12 03:34:24;;;;;;;0.20;0.20;;;;;;;9.10;73.34;100589.06;5059181;28;20041;-83
2023/11/12 03:36:50;;;;;;;0.20;0.20;;;;;;;9.10;73.30;100582.88;5056682;28;20108;-84
2023/11/12 03:39:17;;;;;;;0.20;0.20;;;;;;;9.10;73.04;100573.22;5063713;28;20575;-84
2023/11/12 03:41:43;;;;;;;0.20;0.20;;;;;;;9.11;72.79;100579.34;5061071;28;20028;-84
2023/11/12 03:44:10;;;;;;;0.32;0.32;;;;;;;9.14;73.16;100581.97;5056757;28;20041;-83
2023/11/12 03:46:36;;;;;;;0.20;0.20;;;;;;;9.13;73.05;100578.44;5060576;28;20032;-83
2023/11/12 03:49:04;;;;;;;0.28;0.28;;;;;;;9.13;73.01;100578.44;5070205;28;20088;-82
2023/11/12 03:51:32;;;;;;;0.88;0.88;;;;;;;9.14;72.88;100579.31;5060278;28;20032;-82
2023/11/12 03:54:01;;;;;;;0.77;0.77;;;;;;;9.14;73.04;100584.59;5056999;28;20033;-83
2023/11/12 03:56:28;;;;;;;0.20;0.20;;;;;;;9.15;73.02;100581.06;5064520;28;20025;-83
2023/11/12 03:58:56;;;;;;;0.20;0.20;;;;;;;9.15;72.80;100578.41;5056830;28;20065;-82
2023/11/12 04:01:23;;;;;;;0.20;0.20;;;;;;;9.15;72.89;100578.41;5055509;28;20029;-83
2023/11/12 04:03:49;;;;;;;0.20;0.20;;;;;;;9.13;72.89;100577.56;5055205;28;20017;-83
2023/11/12 04:06:17;;;;;;;0.13;0.13;;;;;;;9.11;72.79;100579.34;5056497;28;20036;-84
2023/11/12 04:08:43;;;;;;;0.10;0.10;;;;;;;9.05;72.83;100586.50;5055952;28;20039;-85
2023/11/12 04:11:10;;;;;;;0.75;0.75;;;;;;;9.01;72.69;100582.19;5058192;28;20124;-84
2023/11/12 04:13:36;;;;;;;0.20;0.20;;;;;;;8.96;72.50;100576.09;5064735;28;20124;-84
2023/11/12 04:16:02;;;;;;;0.20;0.20;;;;;;;8.93;72.50;100585.84;5060334;28;20025;-82
2023/11/12 04:18:28;;;;;;;0.20;0.20;;;;;;;8.87;72.88;100584.19;5058392;28;20037;-83
2023/11/12 04:20:54;;;;;;;0.20;0.20;;;;;;;8.82;72.54;100576.34;5058295;28;20395;-83
2023/11/12 04:23:20;;;;;;;0.95;0.73;;;;;;;8.78;72.52;100573.78;5059441;28;20021;-83
2023/11/12 04:25:48;;;;;;;0.20;0.20;;;;;;;8.76;72.12;100580.84;5058235;28;20073;-82
2023/11/12 04:28:15;;;;;;;0.20;0.20;;;;;;;8.74;72.28;100576.47;5058508;28;20464;-83
2023/11/12 04:30:42;;;;;;;0.20;0.20;;;;;;;8.75;72.41;100580.00;5056141;28;20033;-83
2023/11/12 04:33:08;;;;;;;0.20;0.20;;;;;;;8.78;72.35;100581.72;5058636;28;20036;-83
2023/11/12 04:35:34;;;;;;;0.20;0.20;;;;;;;8.81;72.37;100585.16;5058165;28;20031;-83
2023/11/12 04:38:00;;;;;;;0.75;0.75;;;;;;;8.84;72.63;100584.25;5057995;28;20037;-83
2023/11/12 04:40:26;;;;;;;0.20;0.20;;;;;;;8.89;72.37;100587.69;5058756;28;20029;-83
2023/11/12 04:42:54;;;;;;;0.57;0.55;;;;;;;8.95;72.67;100594.59;5059420;28;20028;-83
2023/11/12 04:45:20;;;;;;;0.20;0.20;;;;;;;9.00;72.38;100585.72;5059308;28;20487;-82
2023/11/12 04:47:46;;;;;;;0.20;0.20;;;;;;;9.06;72.88;100592.69;5062365;28;20033;-82
2023/11/12 04:50:12;;;;;;;0.10;0.10;;;;;;;9.12;72.61;100591.69;5054504;28;20030;-81
2023/11/12 04:52:39;;;;;;;0.95;0.55;;;;;;;9.17;72.80;100589.81;5058160;28;20021;-82
2023/11/12 04:55:06;;;;;;;0.20;0.20;;;;;;;9.24;72.96;100594.09;5056472;28;20036;-82
2023/11/12 04:57:32;;;;;;;0.20;0.20;;;;;;;9.26;72.92;100594.94;5058988;28;20040;-81
2023/11/12 05:00:00;;;;;;;0.30;0.30;;;;;;;9.30;72.99;100601.91;5056686;28;20032;-81
2023/11/12 05:02:26;;;;;;;0.20;0.20;;;;;;;9.35;72.92;100600.06;5050370;28;20029;-81
2023/11/12 05:04:52;;;;;;;0.10;0.10;;;;;;;9.38;72.98;100597.38;5058931;28;20569;-81
2023/11/12 05:07:18;;;;;;;0.50;0.50;;;;;;;9.42;72.80;100599.94;5057756;28;20033;-81
2023/11/12 05:09:44;;;;;;;1.27;1.15;;;;;;;9.38;72.93;100597.38;5054199;28;20029;-83
2023/11/12 05:12:10;;;;;;;0.20;0.20;;;;;;;9.39;73.00;100599.13;5057224;28;20388;-83
2023/11/12 05:14:36;;;;;;;0.10;0.10;;;;;;;9.38;72.85;100605.31;5056815;28;20033;-82
2023/11/12 05:17:02;;;;;;;0.10;0.10;;;;;;;9.41;73.22;100603.47;5062932;28;20024;-83
2023/11/12 05:19:29;;;;;;;0.77;0.77;;;;;;;9.41;72.97;100601.72;5056925;28;20047;-82
2023/11/12 05:21:55;;;;;;;0.47;0.47;;;;;;;9.43;73.05;100605.19;5058313;28;20108;-82
2023/11/12 05:24:21;;;;;;;0.20;0.20;;;;;;;9.44;72.86;100604.28;5058198;28;20048;-82
2023/11/12 05:26:47;;;;;;;0.15;0.15;;;;;;;9.46;73.20;100606.91;5054011;28;20041;-81
2023/11/12 05:29:13;;;;;;;0.80;0.80;;;;;;;9.47;72.91;100608.66;5059110;28;20075;-81
2023/11/12 05:31:39;;;;;;;0.45;0.45;;;;;;;9.41;73.09;100608.75;5057609;28;20488;-81
2023/11/12 05:34:05;;;;;;;0.20;0.20;;;;;;;9.45;73.06;100606.03;5057428;28;20119;-81
2023/11/12 05:36:31;;;;;;;0.17;0.17;;;;;;;9.46;72.98;100612.19;5058035;28;20024;-82
2023/11/12 05:38:58;;;;;;;1.05;1.05;;;;;;;9.44;72.74;100617.53;5058411;28;20506;-82
2023/11/12 05:41:24;;;;;;;0.20;0.20;;;;;;;9.45;72.88;100610.47;5062792;28;20071;-82
2023/11/12 05:43:51;;;;;;;0.20;0.20;;;;;;;9.46;72.98;100613.09;5058052;28;20037;-82
2023/11/12 05:46:17;;;;;;;0.20;0.20;;;;;;;9.46;72.95;100622.78;5057382;28;20033;-82
2023/11/12 05:48:43;;;;;;;1.15;1.15;;;;;;;9.42;72.90;100613.16;5062508;28;20404;-81
2023/11/12 05:51:09;;;;;;;0.30;0.30;;;;;;;9.40;72.94;100618.50;5056915;28;20055;-82
2023/11/12 05:53:36;;;;;;;0.88;0.88;;;;;;;9.37;72.99;100614.13;5057689;28;20017;-82
2023/11/12 05:56:03;;;;;;;0.28;0.28;;;;;;;9.37;72.82;100608.84;5057457;28;20029;-80
2023/11/12 05:58:30;;;;;;;0.20;0.20;;;;;;;9.35;72.79;100615.91;5064176;28;20045;-82
2023/11/12 06:00:58;;;;;;;0.20;0.20;;;;;;;9.36;72.75;100614.16;5054597;28;20037;-81
2023/11/12 06:03:24;;;;;;;0.13;0.13;;;;;;;9.34;72.98;100624.75;5059072;28;20020;-81
2023/11/12 06:05:50;;;;;;;0.20;0.20;;;;;;;9.29;72.93;100626.59;5059264;28;20085;-81
2023/11/12 06:08:16;;;;;;;0.50;0.50;;;;;;;9.31;72.67;100627.47;5058531;28;20063;-81
2023/11/12 06:10:43;;;;;;;0.30;0.30;;;;;;;9.27;72.70;100631.06;5059358;28;20060;-82
2023/11/12 06:13:10;;;;;;;0.20;0.20;;;;;;;9.28;72.87;100629.28;5059502;28;20025;-81
2023/11/12 06:15:36;;;;;;;0.50;0.50;;;;;;;9.21;73.02;100631.19;5055092;28;20036;-81
2023/11/12 06:18:03;;;;;;;0.38;0.38;;;;;;;9.19;73.06;100630.31;5059439;28;20124;-81
2023/11/12 06:20:29;;;;;;;0.40;0.40;;;;;;;9.17;73.07;100626.81;5059018;28;20119;-80
2023/11/12 06:22:56;;;;;;;0.20;0.20;;;;;;;9.15;73.22;100631.28;5060984;28;20451;-82
2023/11/12 06:25:23;;;;;;;0.95;0.95;;;;;;;9.14;73.28;100626.91;5058940;28;20047;-82
2023/11/12 06:27:50;;;;;;;0.38;0.38;;;;;;;9.11;73.11;100634.84;5058231;28;20040;-83
2023/11/12 06:30:16;;;;;;;0.25;0.25;;;;;;;9.10;73.07;100635.75;5056173;28;20028;-82
2023/11/12 06:32:43;;;;;;;0.20;0.20;;;;;;;9.07;73.07;100634.94;5057022;28;20408;-80
2023/11/12 06:35:10;;;;;;;0.20;0.20;;;;;;;9.05;73.27;100631.44;5057241;28;20041;-81
2023/11/12 06:37:36;;;;;;;0.40;0.40;;;;;;;9.04;72.86;100632.31;5059993;28;20079;-81
2023/11/12 06:40:03;;;;;;;0.20;0.20;;;;;;;9.03;73.00;100629.72;5059161;28;20446;-82
2023/11/12 06:42:31;;;;;;;0.20;0.20;;;;;;;9.03;73.08;100630.59;5055367;28;20017;-81
2023/11/12 06:44:57;;;;;;;0.20;0.20;;;;;;;9.07;73.30;100627.00;5057041;28;20032;-81
2023/11/12 06:47:23;;;;;;;0.20;0.20;;;;;;;9.10;73.37;100630.47;5059033;28;20044;-80
2023/11/12 06:49:52;;;;;;;0.20;0.20;;;;;;;9.10;73.26;100635.75;5054662;28;20028;-81
2023/11/12 06:52:18;;;;;;;0.20;0.20;;;;;;;9.11;72.96;100642.78;5052658;28;20033;-81
2023/11/12 06:54:44;;;;;;;1.38;1.38;;;;;;;9.10;73.22;100648.97;5052234;28;20057;-82
2023/11/12 06:57:10;;;;;;;0.30;0.30;;;;;;;9.07;73.08;100637.56;5055830;28;20032;-81
2023/11/12 06:59:36;;;;;;;0.20;0.20;;;;;;;9.12;73.22;100647.19;5057961;28;20033;-82
2023/11/12 07:02:02;;;;;;;0.20;0.20;;;;;;;9.12;73.42;100645.44;5056756;28;20040;-81
2023/11/12 07:04:28;;;;;;;1.15;1.08;;;;;;;9.16;73.33;100651.50;5053412;28;20196;-82
2023/11/12 07:06:54;;;;;;;0.30;0.30;;;;;;;9.16;73.51;100648.88;5053663;28;20075;-82
2023/11/12 07:09:21;;;;;;;0.20;0.20;;;;;;;9.17;73.36;100651.50;5053650;28;20152;-83
2023/11/12 07:11:47;;;;;;;0.20;0.20;;;;;;;9.20;73.26;100650.56;5054586;28;20040;-81
2023/11/12 07:14:13;;;;;;;30.60;2.70;;;;;;;9.23;73.25;100650.50;5054269;28;20041;-80
2023/11/12 07:16:39;;;;;;;0.20;0.20;;;;;;;9.26;73.15;100653.13;5057880;28;20036;-81
2023/11/12 07:19:05;;;;;;;0.13;0.13;;;;;;;9.29;73.24;100658.34;5054227;28;20037;-80
2023/11/12 07:21:32;;;;;;;0.17;0.17;;;;;;;9.31;73.11;100661.84;5054163;28;20039;-82
2023/11/12 07:23:59;;;;;;;0.20;0.20;;;;;;;9.34;73.08;100656.47;5057461;28;20033;-82
2023/11/12 07:26:26;;;;;;;1.48;1.38;;;;;;;9.34;73.35;100667.06;5057116;28;20089;-82
2023/11/12 07:28:53;;;;;;;0.30;0.30;;;;;;;9.34;73.11;100669.69;5058361;28;20055;-82
2023/11/12 07:31:22;;;;;;;0.20;0.20;;;;;;;9.36;73.38;100673.19;5059527;28;20029;-81
2023/11/12 07:33:48;;;;;;;0.47;0.47;;;;;;;9.37;73.30;100672.31;5046542;28;20028;-82
2023/11/12 07:36:15;;;;;;;0.20;0.20;;;;;;;9.38;73.22;100667.88;5040975;28;20411;-82
2023/11/12 07:38:41;;;;;;;1.13;1.13;;;;;;;9.37;73.18;100674.06;5052108;28;20032;-83
2023/11/12 07:41:08;;;;;;;0.20;0.20;;;;;;;9.37;73.16;100677.59;5053798;28;20043;-80
2023/11/12 07:43:35;;;;;;;1.60;1.50;;;;;;;9.37;73.16;100672.31;5055987;28;20052;-83
2023/11/12 07:46:02;;;;;;;0.40;0.40;;;;;;;9.40;72.94;100671.38;5059762;28;20162;-82
2023/11/12 07:48:29;;;;;;;0.20;0.20;;;;;;;9.44;73.09;100672.19;5057702;28;20086;-82
2023/11/12 07:50:57;;;;;;;0.22;0.22;;;;;;;9.47;72.96;100672.13;5060724;28;20060;-81
2023/11/12 07:53:24;;;;;;;0.20;0.20;;;;;;;9.50;72.94;100677.38;5059200;28;20087;-82
2023/11/12 07:55:51;;;;;;;0.13;0.13;;;;;;;9.52;72.99;100676.44;5058818;28;20093;-81
2023/11/12 07:58:17;;;;;;;0.52;0.47;;;;;;;9.54;73.15;100679.03;5056593;28;20415;-83
2023/11/12 08:00:43;;;;;;;0.30;0.30;;;;;;;9.56;73.01;100682.56;5053519;28;20029;-82
2023/11/12 08:03:09;;;;;;;1.10;1.00;;;;;;;9.55;72.75;100691.38;5055808;28;20029;-84
2023/11/12 08:05:36;;;;;;;0.35;0.35;;;;;;;9.53;72.67;100691.41;5060954;28;20108;-81
2023/11/12 08:08:02;;;;;;;0.20;0.20;;;;;;;9.51;72.64;100687.06;5070455;28;20080;-81
2023/11/12 08:10:28;;;;;;;0.65;0.65;;;;;;;9.51;72.64;100684.41;5061004;28;21127;-81
2023/11/12 08:12:55;;;;;;;0.17;0.17;;;;;;;9.52;72.55;100686.13;5058544;28;20511;-82
2023/11/12 08:15:21;;;;;;;0.57;0.57;;;;;;;9.54;72.51;100689.63;5061261;28;20423;-82
2023/11/12 08:17:47;;;;;;;0.30;0.30;;;;;;;9.53;72.43;100698.47;5061900;28;20509;-82
2023/11/12 08:20:14;;;;;;;0.10;0.10;;;;;;;9.61;72.60;100691.28;5063441;28;20091;-82
2023/11/12 08:22:40;;;;;;;0.10;0.10;;;;;;;9.62;72.38;100693.00;5063909;28;20084;-82
2023/11/12 08:25:09;;;;;;;0.20;0.20;;;;;;;9.64;72.58;100688.56;5067140;28;20025;-81
2023/11/12 08:27:35;;;;;;;0.40;0.40;;;;;;;9.61;72.28;100693.91;5065931;28;20555;-81
2023/11/12 08:30:03;;;;;;;0.22;0.22;;;;;;;9.65;72.97;100689.44;5060871;28;20515;-81
2023/11/12 08:32:31;;;;;;;0.20;0.20;;;;;;;9.68;72.60;100692.91;5058323;28;20076;-81
2023/11/12 08:34:57;;;;;;;0.10;0.10;;;;;;;9.70;72.74;100683.16;5056934;28;20132;-81
2023/11/12 08:37:26;;;;;;;0.10;0.10;;;;;;;9.77;72.72;100694.50;5059785;28;20060;-81
2023/11/12 08:39:52;;;;;;;1.08;0.57;;;;;;;9.81;72.76;100695.31;5057756;28;20060;-80
2023/11/12 08:42:18;;;;;;;0.22;0.22;;;;;;;9.83;72.86;100691.75;5062172;28;20033;-81
2023/11/12 08:44:44;;;;;;;0.30;0.30;;;;;;;9.79;72.54;100689.19;5063333;28;20075;-83
2023/11/12 08:47:10;;;;;;;2.45;1.98;;;;;;;9.79;72.61;100692.69;5059279;28;20101;-81
2023/11/12 08:49:37;;;;;;;0.57;0.57;;;;;;;9.77;72.22;100701.56;5055423;28;20045;-81
2023/11/12 08:52:03;;;;;;;0.20;0.20;;;;;;;9.80;72.44;100696.22;5065986;28;20071;-81
2023/11/12 08:54:29;;;;;;;0.10;0.10;;;;;;;9.87;72.67;100692.56;5070798;28;20082;-82
2023/11/12 08:56:55;;;;;;;0.10;0.10;;;;;;;9.94;72.54;100704.75;5061641;28;20396;-82
2023/11/12 08:59:22;;;;;;;0.10;0.10;;;;;;;9.98;72.73;100706.44;5068249;28;20054;-82
2023/11/12 09:01:49;;;;;;;0.22;0.22;;;;;;;9.97;72.68;100711.75;5067708;28;20025;-81
2023/11/12 09:04:15;;;;;;;0.17;0.17;;;;;;;9.99;72.05;100710.84;5060853;28;20063;-81
2023/11/12 09:06:41;;;;;;;0.70;0.70;;;;;;;10.05;72.84;100717.78;5063252;28;20111;-81
2023/11/12 09:09:08;;;;;;;0.10;0.10;;;;;;;10.12;72.46;100713.22;5064427;28;20515;-81
2023/11/12 09:11:36;;;;;;;0.20;0.20;;;;;;;10.13;72.43;100717.63;5072813;28;20029;-82
2023/11/12 09:14:04;;;;;;;0.30;0.30;;;;;;;10.14;72.22;100719.38;5067067;28;20021;-81
2023/11/12 09:16:32;;;;;;;0.10;0.10;;;;;;;10.22;72.24;100720.09;5066003;28;20029;-82
2023/11/12 09:18:59;;;;;;;0.28;0.28;;;;;;;10.35;72.21;100718.94;5065093;28;20093;-82
2023/11/12 09:21:30;;;;;;;0.35;0.35;;;;;;;10.40;72.16;100710.91;5066209;28;20033;-82
2023/11/12 09:23:57;;;;;;;0.17;0.17;;;;;;;10.39;71.37;100717.09;5068261;28;20020;-83
2023/11/12 09:26:24;;;;;;;0.40;0.40;;;;;;;10.46;71.57;100712.56;5068782;28;20025;-81
2023/11/12 09:28:50;;;;;;;0.20;0.20;;;;;;;10.48;71.34;100718.69;5066116;28;20063;-83
2023/11/12 09:31:19;;;;;;;1.05;1.05;;;;;;;10.50;71.34;100725.72;5064767;28;20539;-81
2023/11/12 09:33:46;;;;;;;0.20;0.20;;;;;;;10.53;71.39;100730.06;5063051;28;20535;-81
2023/11/12 09:36:13;;;;;;;0.43;0.43;;;;;;;10.55;70.80;100732.69;5062446;28;20085;-80
2023/11/12 09:38:39;;;;;;;0.82;0.82;;;;;;;10.59;71.18;100729.94;5058042;28;20475;-80
2023/11/12 09:41:09;;;;;;;0.50;0.50;;;;;;;10.64;71.01;100728.06;5063411;28;20056;-83
2023/11/12 09:43:54;;;;;;;0.28;0.28;;;;;;;10.71;71.60;100736.72;5064959;28;20040;-83
2023/11/12 09:46:25;;;;;;;0.73;0.73;;;;;;;10.79;70.85;100731.25;5065234;28;20039;-84
2023/11/12 09:48:54;;;;;;;0.20;0.20;;;;;;;10.85;71.23;100723.16;5077568;28;20032;-82
2023/11/12 09:51:23;;;;;;;0.10;0.10;;;;;;;10.95;71.76;100727.38;5063016;28;20033;-83
2023/11/12 09:53:50;;;;;;;1.45;1.40;;;;;;;10.94;70.72;100732.69;5070599;28;20036;-82
2023/11/12 09:56:16;;;;;;;0.20;0.20;;;;;;;10.95;70.66;100734.44;5072072;28;20040;-82
2023/11/12 09:58:46;;;;;;;0.77;0.63;;;;;;;10.95;70.34;100737.97;5063102;28;20025;-83
2023/11/12 10:01:13;;;;;;;0.20;0.20;;;;;;;10.95;69.81;100730.03;5062070;28;20120;-82
2023/11/12 10:03:47;;;;;;;0.15;0.15;;;;;;;10.98;69.85;100727.28;5065352;28;20120;-82
2023/11/12 10:06:16;;;;;;;0.65;0.65;;;;;;;11.05;70.79;100733.28;5059513;28;20385;-82
2023/11/12 10:08:42;;;;;;;1.00;1.00;;;;;;;10.98;69.63;100737.88;5055749;28;20033;-81
2023/11/12 10:13:53;;;;;;;0.80;0.80;;;;;;;10.94;69.89;100744.16;5115763;27;20453;-84
2023/11/12 10:16:29;;;;;;;0.55;0.55;;;;;;;10.99;69.80;100747.59;5114660;28;20024;-83
2023/11/12 10:19:13;;;;;;;1.35;1.35;;;;;;;10.93;68.80;100747.72;5112301;28;20039;-82
2023/11/12 10:21:58;;;;;;;0.43;0.38;;;;;;;10.89;68.81;100747.81;5118750;28;20027;-84
2023/11/12 10:24:28;;;;;;;0.38;0.38;;;;;;;10.81;69.48;100750.66;5099926;28;20016;-81
2023/11/12 10:27:03;;;;;;;0.50;0.50;;;;;;;10.76;69.43;100745.44;5107113;28;20106;-82
2023/11/12 10:29:29;;;;;;;1.13;0.82;;;;;;;10.59;68.91;100751.13;5109508;28;20020;-84
2023/11/12 10:31:57;;;;;;;0.20;0.20;;;;;;;10.53;68.92;100759.22;5108141;28;20039;-84
2023/11/12 10:34:26;;;;;;;3.38;1.95;;;;;;;10.48;68.54;100759.31;5102360;28;20028;-82
2023/11/12 10:37:08;;;;;;;0.65;0.65;;;;;;;10.46;68.95;100757.59;5105444;28;20036;-82
2023/11/12 10:39:43;;;;;;;7.50;3.53;;;;;;;10.40;68.99;100753.28;5107560;28;20032;-84
2023/11/12 10:44:56;;;;;;;2.20;0.65;;;;;;;10.32;69.10;100764.00;5117078;27;20466;-83
2023/11/12 10:47:24;;;;;;;0.43;0.43;;;;;;;10.26;69.04;100758.84;5102034;28;20082;-83
2023/11/12 10:49:51;;;;;;;1.00;1.00;;;;;;;10.32;69.38;100756.06;5095634;28;20060;-82
2023/11/12 10:52:19;;;;;;;0.20;0.20;;;;;;;10.40;69.46;100760.38;5097302;28;20058;-82
2023/11/12 10:54:46;;;;;;;1.67;0.93;;;;;;;10.41;69.63;100756.81;5096856;28;20387;-83
2023/11/12 10:57:13;;;;;;;0.20;0.20;;;;;;;10.49;70.06;100754.88;5095230;28;20035;-82
2023/11/12 10:59:40;;;;;;;0.85;0.85;;;;;;;10.52;69.65;100765.41;5094275;28;20055;-83
2023/11/12 11:02:17;;;;;;;0.85;0.85;;;;;;;10.54;69.81;100760.06;5092346;28;20046;-83
2023/11/12 11:04:45;;;;;;;0.32;0.32;;;;;;;10.56;69.91;100766.22;5099610;28;20097;-83
2023/11/12 11:07:13;;;;;;;0.52;0.52;;;;;;;10.44;69.38;100785.88;5090020;28;20040;-82
2023/11/12 11:09:39;;;;;;;0.52;0.52;;;;;;;10.41;69.55;100785.97;5091527;28;20025;-82
2023/11/12 11:12:06;;;;;;;0.32;0.32;;;;;;;10.28;69.48;100779.97;5097940;28;20036;-82
2023/11/12 11:14:34;;;;;;;0.82;0.82;;;;;;;10.22;70.33;100783.63;5105173;28;20020;-82
2023/11/12 11:17:08;;;;;;;1.00;0.90;;;;;;;10.10;69.79;100789.16;5093765;28;20032;-82
2023/11/12 11:22:29;;;;;;;0.90;0.90;;;;;;;10.12;70.12;100798.81;5118048;27;20384;-82
2023/11/12 11:24:57;;;;;;;0.63;0.63;;;;;;;10.14;70.13;100790.84;5107490;28;20019;-83
2023/11/12 11:27:25;;;;;;;0.30;0.30;;;;;;;9.92;69.61;100796.56;5114020;28;20052;-81
2023/11/12 11:30:13;;;;;;;0.60;0.60;;;;;;;10.01;69.91;100796.38;5110885;28;20028;-82
2023/11/12 11:35:32;;;;;;;1.27;1.23;;;;;;;10.10;70.57;100794.47;5120554;27;20407;-83
2023/11/12 11:38:13;;;;;;;1.10;1.10;;;;;;;10.11;69.92;100801.50;5109586;28;20031;-83
2023/11/12 11:40:42;;;;;;;1.55;1.38;;;;;;;10.03;69.91;100794.56;5105850;28;20016;-84
2023/11/12 11:46:09;;;;;;;1.27;1.17;;;;;;;10.15;69.65;100803.19;5119652;27;20463;-82